Stations météo

réclame
Mon MeteoGroup
Gemini, Pays-Bas (6214): Température de l'air & dewpoint: 17.10.2018 07:00:00 - 23.10.2018 07:00:00 (CEST)Gemini, Pays-Bas (6214): Vitesse du vent & gusts: 17.10.2018 07:00:00 - 23.10.2018 07:00:00 (CEST)Gemini, Pays-Bas (6214): Direction du vent: 17.10.2018 07:00:00 - 23.10.2018 07:00:00 (CEST)Gemini, Pays-Bas (6214): reduced air pressure: 17.10.2018 07:00:00 - 23.10.2018 07:00:00 (CEST)
Date & Time tt [°C] td [°C] ff [km/h] ff [knt] fx [km/h] fx [knt] dd ppp [hPa]
23.10.2018 07:00:00 13,1 8,7 67 36 68 37 WNW 1019,3
23.10.2018 06:00:00 13,0 8,6 67 36 68 37 WNW 1020,3
23.10.2018 05:00:00 12,8 7,9 63 34 65 35 WNW 1021,5
23.10.2018 04:00:00 12,9 8,2 63 34 65 35 WNW 1022,6
23.10.2018 03:00:00 13,1 8,1 61 33 65 35 WNW 1024,0
23.10.2018 02:00:00 13,2 8,1 61 33 65 35 WNW 1025,6
23.10.2018 01:00:00 13,0 7,2 59 32 61 33 W 1027,1
23.10.2018 00:00:00 12,7 6,6 54 29 58 31 W 1028,2
22.10.2018 23:00:00 12,5 5,6 54 29 54 29 W 1029,5
22.10.2018 22:00:00 12,0 5,0 44 24 50 27 W 1030,2
22.10.2018 21:00:00 11,8 5,3 34 18 43 23 W 1030,7
22.10.2018 20:00:00 12,0 5,1 28 15 36 19 WNW 1031,4
22.10.2018 19:00:00 12,0 4,0 29 16 32 18 NW 1031,7
22.10.2018 18:00:00 12,1 3,8 28 15 32 18 NNW 1031,8
22.10.2018 17:00:00 12,1 4,5 22 12 32 18 NNW 1031,9
22.10.2018 16:00:00 12,3 4,1 28 15 36 19 NNW 1032,3
22.10.2018 15:00:00 12,5 3,5 24 13 32 18 NNW 1032,6
22.10.2018 14:00:00 12,5 4,6 26 14 36 19 NNW 1032,3
22.10.2018 13:00:00 12,6 2,8 28 15 32 18 N 1032,5
22.10.2018 12:00:00 12,8 2,8 34 18 40 21 N 1032,2
22.10.2018 11:00:00 12,5 5,5 34 18 43 23 N 1031,6
22.10.2018 10:00:00 13,0 4,8 29 16 40 21 N 1031,0
22.10.2018 09:00:00 12,5 2,5 37 20 40 21 N 1030,2
22.10.2018 08:00:00 12,6 5,3 35 19 43 23 N 1029,5
22.10.2018 07:00:00 12,9 6,5 31 17 40 21 N 1028,5
22.10.2018 06:00:00 13,2 6,8 37 20 40 21 N 1027,9
22.10.2018 05:00:00 13,4 7,7 28 15 40 21 N 1027,3
22.10.2018 04:00:00 13,3 7,7 34 18 43 23 N 1026,9
22.10.2018 03:00:00 13,5 8,4 35 19 36 19 NNE 1026,6
22.10.2018 02:00:00 13,8 9,3 31 17 43 23 N 1026,0
22.10.2018 01:00:00 14,3 12,7 26 14 40 21 N 1025,1
22.10.2018 00:00:00 14,3 13,4 22 12 36 19 NNW 1024,8
21.10.2018 23:00:00 14,3 13,5 24 13 29 16 WNW 1024,3
21.10.2018 22:00:00 14,5 12,7 22 12 36 19 W 1024,3
21.10.2018 21:00:00 15,3 12,1 34 18 40 21 W 1024,8
21.10.2018 20:00:00 15,2 13,7 24 13 43 23 WSW 1024,5
21.10.2018 19:00:00 14,9 13,2 41 22 43 23 WSW 1024,7
21.10.2018 18:00:00 14,8 13,1 35 19 43 23 SW 1024,7
21.10.2018 17:00:00 14,7 13,1 37 20 40 21 SW 1024,6
21.10.2018 16:00:00 14,7 13,0 37 20 40 21 SW 1025,2
21.10.2018 15:00:00 14,7 13,2 35 19 40 21 SW 1025,4
21.10.2018 14:00:00 14,4 13,0 31 17 36 19 SW 1026,0
21.10.2018 13:00:00 14,5 13,2 31 17 36 19 SW 1026,3
21.10.2018 12:00:00 14,6 13,3 29 16 32 18 SW 1026,8
21.10.2018 11:00:00 14,7 13,3 28 15 32 18 SW 1026,6
21.10.2018 10:00:00 14,5 13,3 26 14 32 18 SW 1026,6
21.10.2018 09:00:00 14,4 13,3 26 14 32 18 SW 1027,0
21.10.2018 08:00:00 14,5 13,4 28 15 32 18 SW 1026,7
21.10.2018 07:00:00 15,0 13,3 24 13 29 16 WSW 1026,7
21.10.2018 06:00:00 15,0 13,1 16 9 29 16 WSW 1027,0
21.10.2018 05:00:00 14,9 12,9 16 9 25 14 WSW 1027,2
21.10.2018 04:00:00 14,9 12,5 15 8 25 14 WSW 1027,7
21.10.2018 03:00:00 14,7 12,0 15 8 25 14 W 1027,9
21.10.2018 02:00:00 14,6 11,8 16 9 25 14 W 1028,3
21.10.2018 01:00:00 14,5 11,4 18 10 25 14 W 1028,7
21.10.2018 00:00:00 14,4 11,3 18 10 22 12 W 1029,0
20.10.2018 23:00:00 14,5 11,1 18 10 25 14 W 1029,2
20.10.2018 22:00:00 14,5 11,5 21 11 22 12 W 1029,2
20.10.2018 21:00:00 14,4 11,0 11 6 14 8 WNW 1029,1
20.10.2018 20:00:00 14,3 10,8 15 8 18 10 WNW 1029,5
20.10.2018 19:00:00 14,2 9,8 18 10 22 12 NW 1029,3
20.10.2018 18:00:00 14,4 9,9 21 11 22 12 NW 1029,1
20.10.2018 17:00:00 14,7 10,6 16 9 22 12 WNW 1029,2
20.10.2018 16:00:00 14,5 10,1 21 11 22 12 NW 1029,4
20.10.2018 15:00:00 14,5 10,3 22 12 22 12 NW 1029,7
20.10.2018 14:00:00 14,7 10,3 18 10 22 12 NW 1029,4
20.10.2018 13:00:00 15,0 10,3 21 11 29 16 WNW 1029,5
20.10.2018 12:00:00 14,7 10,2 24 13 29 16 WNW 1029,5
20.10.2018 11:00:00 14,6 10,4 24 13 25 14 NW 1029,3
20.10.2018 10:00:00 14,3 10,6 22 12 25 14 WNW 1028,9
20.10.2018 09:00:00 14,1 10,2 21 11 25 14 WNW 1028,2
20.10.2018 08:00:00 14,1 10,2 24 13 25 14 WNW 1027,9
20.10.2018 07:00:00 13,8 9,9 18 10 22 12 W 1027,6
20.10.2018 06:00:00 13,9 8,1 16 9 25 14 NW 1027,5
20.10.2018 05:00:00 13,5 8,1 21 11 29 16 NW 1027,3
20.10.2018 04:00:00 13,5 8,1 26 14 32 18 WNW 1027,4
20.10.2018 03:00:00 13,1 8,4 22 12 36 19 WSW 1027,0
20.10.2018 02:00:00 12,9 7,9 22 12 32 18 WSW 1027,0
20.10.2018 01:00:00 12,7 7,2 22 12 29 16 WSW 1026,9
20.10.2018 00:00:00 12,7 7,0 16 9 25 14 WSW 1026,9
19.10.2018 23:00:00 12,6 6,5 15 8 22 12 WSW 1027,1
19.10.2018 22:00:00 12,4 6,3 15 8 18 10 WSW 1026,9
19.10.2018 21:00:00 12,4 5,6 13 7 18 10 WSW 1026,7
19.10.2018 20:00:00 12,5 5,7 11 6 14 8 WSW 1026,7
19.10.2018 19:00:00 12,6 4,4 8 4 11 6 SW 1025,9
19.10.2018 18:00:00 13,1 3,6 8 4 11 6 SW 1025,8
19.10.2018 17:00:00 13,0 3,7 8 4 11 6 S 1025,4
19.10.2018 16:00:00 12,6 3,3 2 1 7 4 - 1025,7
19.10.2018 15:00:00 12,8 3,3 4 2 11 6 - 1026,3
19.10.2018 14:00:00 12,7 3,1 4 2 14 8 - 1026,8
19.10.2018 13:00:00 12,9 3,4 5 3 11 6 NW 1027,0
19.10.2018 12:00:00 12,6 3,0 4 2 7 4 - 1026,8
19.10.2018 11:00:00 12,4 3,1 9 5 14 8 S 1027,0
19.10.2018 10:00:00 12,3 3,2 5 3 11 6 - 1026,8
19.10.2018 09:00:00 12,3 3,4 9 5 11 6 NE 1026,8
19.10.2018 08:00:00 12,3 3,7 5 3 11 6 - 1026,6
19.10.2018 07:00:00 12,3 4,1 2 1 11 6 - 1026,6
19.10.2018 06:00:00 12,2 3,7 8 4 11 6 - 1026,4
19.10.2018 05:00:00 12,3 4,5 9 5 11 6 ENE 1026,8
19.10.2018 04:00:00 12,3 4,2 9 5 18 10 - 1026,7
19.10.2018 03:00:00 12,3 4,5 9 5 25 14 E 1026,8
19.10.2018 02:00:00 12,5 4,5 15 8 18 10 ENE 1027,0
19.10.2018 01:00:00 12,5 4,1 16 9 18 10 ENE 1027,3
19.10.2018 00:00:00 12,5 4,4 21 11 22 12 ENE 1027,5
18.10.2018 23:00:00 12,6 5,1 18 10 25 14 ENE 1027,4
18.10.2018 22:00:00 12,8 5,7 18 10 25 14 NE 1027,5
18.10.2018 21:00:00 12,9 5,5 21 11 22 12 ENE 1027,3
18.10.2018 20:00:00 12,9 5,6 21 11 25 14 ENE 1027,1
18.10.2018 19:00:00 13,0 6,3 22 12 29 16 NE 1026,8
18.10.2018 18:00:00 13,3 6,1 22 12 29 16 NE 1026,5
18.10.2018 17:00:00 13,4 6,7 26 14 29 16 NE 1026,3
18.10.2018 16:00:00 13,5 7,7 25 14 32 18 NE 1026,3
18.10.2018 15:00:00 13,9 8,3 18 10 22 12 ENE 1026,4
18.10.2018 14:00:00 13,8 8,2 21 11 25 14 ENE 1026,3
18.10.2018 13:00:00 13,6 8,0 26 14 32 18 ENE 1026,2
18.10.2018 12:00:00 13,5 8,6 34 18 36 19 NE 1026,1
18.10.2018 11:00:00 13,9 9,2 24 13 32 18 NE 1025,5
18.10.2018 10:00:00 13,6 7,6 24 13 29 16 NE 1025,2
18.10.2018 09:00:00 13,3 7,9 22 12 32 18 NNE 1024,5
18.10.2018 08:00:00 13,0 8,8 22 12 29 16 NNE 1024,1
18.10.2018 07:00:00 13,0 8,7 22 12 32 18 NNE 1023,5
18.10.2018 06:00:00 13,2 8,8 26 14 32 18 N 1023,2
18.10.2018 05:00:00 13,5 9,8 26 14 29 16 N 1022,7
18.10.2018 04:00:00 13,8 10,1 28 15 32 18 N 1022,6
18.10.2018 03:00:00 13,9 11,0 26 14 29 16 N 1022,4
18.10.2018 02:00:00 14,1 11,0 24 13 29 16 N 1022,2
18.10.2018 01:00:00 14,4 11,7 22 12 29 16 N 1021,9
18.10.2018 00:00:00 14,8 12,7 16 9 22 12 N 1021,4
17.10.2018 23:00:00 14,7 12,6 13 7 18 10 NW 1021,1
17.10.2018 22:00:00 14,1 12,6 9 5 14 8 NW 1021,0
17.10.2018 21:00:00 14,6 11,5 13 7 18 10 NW 1020,6
17.10.2018 20:00:00 14,8 11,1 13 7 18 10 WNW 1020,3
17.10.2018 19:00:00 14,9 11,6 18 10 18 10 NW 1019,8
17.10.2018 18:00:00 15,3 11,1 15 8 22 12 W 1019,4
17.10.2018 17:00:00 15,8 11,4 21 11 22 12 W 1019,3
17.10.2018 16:00:00 16,2 12,1 16 9 22 12 W 1019,1
17.10.2018 15:00:00 16,4 12,1 16 9 25 14 W 1018,9
17.10.2018 14:00:00 16,5 12,3 24 13 25 14 W 1018,9
17.10.2018 13:00:00 16,8 13,5 24 13 25 14 W 1018,6
17.10.2018 12:00:00 16,4 14,4 11 6 18 10 WSW 1018,5
17.10.2018 11:00:00 16,1 14,7 11 6 18 10 WSW 1018,2
17.10.2018 10:00:00 15,9 14,7 15 8 22 12 WSW 1017,6
17.10.2018 09:00:00 15,9 14,3 16 9 22 12 WSW 1017,3
17.10.2018 08:00:00 16,1 13,8 18 10 25 14 WSW 1017,2
17.10.2018 07:00:00 16,2 13,6 18 10 22 12 SSW 1016,9

tt = Température de l'air
td = dewpoint
ff = Vitesse du vent
fx = gusts
dd = Direction du vent
ppp = reduced air pressure

stations d'obs. à proximité